TAF Text Data
IDs:
Format:
Raw Decoded Include METAR

Data at: 0857 UTC 26 May 2019

TAF EGGP 260458Z 2606/2706 22009KT 9999 SCT030
  TEMPO 2606/2612 6000 RA BKN014
  PROB30
  TEMPO 2606/2611 3000 +RA RADZ BKN004
  BECMG 2608/2611 28017G27KT
  BECMG 2618/2621 27012KT
  PROB30
  TEMPO 2703/2706 28015G25KT 6000 SHRA BKN014